Time,TemperatureF,DewpointF,PressureIn,WindDirection,WindDirectionDegrees,WindSpeedMPH,WindSpeedGustMPH,Humidity,HourlyPrecipIn,Conditions,Clouds,dailyrainin,SoftwareType,DateUTC
2013-06-04 00:03:00,67.3,49.6,29.91,South,180,0.0,0.0,53,0.00,,,0.00,VWS V14.01,2013-06-03 21:03:00,
2013-06-04 00:09:00,67.3,50.1,29.91,South,180,0.0,0.0,54,0.00,,,0.00,VWS V14.01,2013-06-03 21:09:00,
2013-06-04 00:14:00,67.3,50.1,29.91,South,180,0.0,0.0,54,0.00,,,0.00,VWS V14.01,2013-06-03 21:14:00,
2013-06-04 00:19:00,67.5,50.2,29.91,South,180,0.0,0.0,54,0.00,,,0.00,VWS V14.01,2013-06-03 21:19:00,
2013-06-04 00:24:00,67.8,51.0,29.91,SSW,202,0.0,0.0,55,0.00,,,0.00,VWS V14.01,2013-06-03 21:24:00,
2013-06-04 00:29:00,68.0,51.2,29.90,West,270,0.0,0.0,55,0.00,,,0.00,VWS V14.01,2013-06-03 21:29:00,
2013-06-04 00:34:00,68.2,51.9,29.90,SSW,202,0.0,0.0,56,0.00,,,0.00,VWS V14.01,2013-06-03 21:34:00,
2013-06-04 00:39:00,68.2,51.9,29.90,West,270,0.0,0.0,56,0.00,,,0.00,VWS V14.01,2013-06-03 21:39:00,
2013-06-04 00:44:00,68.5,52.7,29.90,WNW,292,0.0,0.0,57,0.00,,,0.00,VWS V14.01,2013-06-03 21:44:00,
2013-06-04 00:49:00,68.5,52.7,29.89,West,270,0.0,0.0,57,0.00,,,0.00,VWS V14.01,2013-06-03 21:49:00,
2013-06-04 00:54:00,68.5,52.7,29.89,WNW,292,0.0,0.0,57,0.00,,,0.00,VWS V14.01,2013-06-03 21:54:00,
2013-06-04 00:59:00,68.5,52.7,29.89,WNW,292,0.0,0.0,57,0.00,,,0.00,VWS V14.01,2013-06-03 21:59:00,
2013-06-04 01:04:00,68.7,52.8,29.89,SSW,202,0.0,0.0,57,0.00,,,0.00,VWS V14.01,2013-06-03 22:04:00,
2013-06-04 01:09:00,68.7,52.8,29.89,SW,225,0.0,0.0,57,0.00,,,0.00,VWS V14.01,2013-06-03 22:09:00,
2013-06-04 01:14:00,68.7,52.3,29.89,SSW,202,2.6,2.6,56,0.00,,,0.00,VWS V14.01,2013-06-03 22:14:00,
2013-06-04 01:19:00,68.5,52.2,29.89,ESE,112,0.0,0.0,56,0.00,,,0.00,VWS V14.01,2013-06-03 22:19:00,
2013-06-04 01:24:00,68.4,52.5,29.89,NE,45,0.0,0.0,57,0.00,,,0.00,VWS V14.01,2013-06-03 22:24:00,
2013-06-04 01:29:00,68.2,52.4,29.89,NE,45,0.0,0.0,57,0.00,,,0.00,VWS V14.01,2013-06-03 22:29:00,
2013-06-04 01:34:00,68.2,52.8,29.89,SE,135,0.0,0.0,58,0.00,,,0.00,VWS V14.01,2013-06-03 22:34:00,
2013-06-04 01:39:00,68.2,52.8,29.89,SE,135,0.0,0.0,58,0.00,,,0.00,VWS V14.01,2013-06-03 22:39:00,
2013-06-04 01:45:00,68.2,52.8,29.89,WSW,248,4.0,4.0,58,0.00,,,0.00,VWS V14.01,2013-06-03 22:45:00,
2013-06-04 01:50:00,68.2,52.8,29.89,SSW,202,6.4,6.4,58,0.00,,,0.00,VWS V14.01,2013-06-03 22:50:00,
2013-06-04 01:55:00,68.5,53.1,29.89,SW,225,4.9,4.9,58,0.00,,,0.00,VWS V14.01,2013-06-03 22:55:00,
2013-06-04 02:00:00,68.4,53.0,29.89,West,270,0.0,0.0,58,0.00,,,0.00,VWS V14.01,2013-06-03 23:00:00,
2013-06-04 02:05:00,68.4,53.0,29.89,West,270,3.8,3.8,58,0.00,,,0.00,VWS V14.01,2013-06-03 23:05:00,
2013-06-04 02:10:00,68.5,53.1,29.89,South,180,0.0,0.0,58,0.00,,,0.00,VWS V14.01,2013-06-03 23:10:00,
2013-06-04 02:15:00,68.5,53.1,29.89,WNW,292,0.0,0.0,58,0.00,,,0.00,VWS V14.01,2013-06-03 23:15:00,
2013-06-04 02:20:00,68.2,52.8,29.89,SW,225,0.0,0.0,58,0.00,,,0.00,VWS V14.01,2013-06-03 23:20:00,
2013-06-04 02:25:00,68.2,52.8,29.89,SE,135,0.0,0.0,58,0.00,,,0.00,VWS V14.01,2013-06-03 23:25:00,
2013-06-04 02:30:00,68.0,52.7,29.89,WNW,292,0.0,0.0,58,0.00,,,0.00,VWS V14.01,2013-06-03 23:30:00,
2013-06-04 02:35:00,68.0,53.1,29.89,West,270,0.0,0.0,59,0.00,,,0.00,VWS V14.01,2013-06-03 23:35:00,
2013-06-04 02:40:00,68.0,53.1,29.89,WNW,292,0.0,0.0,59,0.00,,,0.00,VWS V14.01,2013-06-03 23:40:00,
2013-06-04 02:45:00,67.8,52.5,29.89,WNW,292,0.0,0.0,58,0.00,,,0.00,VWS V14.01,2013-06-03 23:45:00,
2013-06-04 02:50:00,67.6,52.7,29.89,West,270,0.0,0.0,59,0.00,,,0.00,VWS V14.01,2013-06-03 23:50:00,
2013-06-04 02:56:00,67.6,53.2,29.89,WNW,292,0.0,0.0,60,0.00,,,0.00,VWS V14.01,2013-06-03 23:56:00,
2013-06-04 03:01:00,67.5,53.1,29.89,WNW,292,0.0,0.0,60,0.00,,,0.00,VWS V14.01,2013-06-04 00:01:00,
2013-06-04 03:06:00,67.5,53.1,29.89,WNW,292,0.0,0.0,60,0.00,,,0.00,VWS V14.01,2013-06-04 00:06:00,
2013-06-04 03:11:00,67.3,52.9,29.89,WNW,292,0.0,0.0,60,0.00,,,0.00,VWS V14.01,2013-06-04 00:11:00,
2013-06-04 03:16:00,67.3,52.9,29.89,WNW,292,0.0,0.0,60,0.00,,,0.00,VWS V14.01,2013-06-04 00:16:00,
2013-06-04 03:21:00,67.1,53.2,29.88,WNW,292,0.0,0.0,61,0.00,,,0.00,VWS V14.01,2013-06-04 00:21:00,
2013-06-04 03:26:00,67.1,53.2,29.88,West,270,0.0,0.0,61,0.00,,,0.00,VWS V14.01,2013-06-04 00:26:00,
2013-06-04 03:31:00,67.1,53.2,29.88,WNW,292,0.0,0.0,61,0.00,,,0.00,VWS V14.01,2013-06-04 00:31:00,
2013-06-04 03:36:00,67.1,53.6,29.88,NNW,338,5.5,5.5,62,0.00,,,0.00,VWS V14.01,2013-06-04 00:36:00,
2013-06-04 03:41:00,67.1,53.2,29.87,WNW,292,4.6,4.6,61,0.00,,,0.00,VWS V14.01,2013-06-04 00:41:00,
2013-06-04 03:46:00,67.1,53.2,29.87,WNW,292,0.0,0.0,61,0.00,,,0.00,VWS V14.01,2013-06-04 00:46:00,
2013-06-04 03:51:00,67.1,53.2,29.87,NW,315,0.0,0.0,61,0.00,,,0.00,VWS V14.01,2013-06-04 00:51:00,
2013-06-04 03:56:00,66.9,52.5,29.87,NW,315,0.0,0.0,60,0.00,,,0.00,VWS V14.01,2013-06-04 00:56:00,
2013-06-04 04:01:00,66.9,53.0,29.87,NNW,338,0.0,0.0,61,0.00,,,0.00,VWS V14.01,2013-06-04 01:01:00,
2013-06-04 04:07:00,66.7,52.8,29.86,NW,315,0.0,0.0,61,0.00,,,0.00,VWS V14.01,2013-06-04 01:07:00,
2013-06-04 04:12:00,66.4,53.0,29.86,NNW,338,10.7,10.7,62,0.00,,,0.00,VWS V14.01,2013-06-04 01:12:00,
2013-06-04 04:17:00,66.4,53.0,29.86,NW,315,1.3,1.3,62,0.00,,,0.00,VWS V14.01,2013-06-04 01:17:00,
2013-06-04 04:22:00,66.2,52.8,29.86,NW,315,5.3,5.5,62,0.00,,,0.00,VWS V14.01,2013-06-04 01:22:00,
2013-06-04 04:27:00,66.2,52.8,29.86,NNW,338,5.1,5.1,62,0.00,,,0.00,VWS V14.01,2013-06-04 01:27:00,
2013-06-04 04:32:00,66.2,52.8,29.86,NNW,338,2.4,2.4,62,0.00,,,0.00,VWS V14.01,2013-06-04 01:32:00,
2013-06-04 04:37:00,66.2,52.8,29.86,North,0,0.8,6.9,62,0.00,,,0.00,VWS V14.01,2013-06-04 01:37:00,
2013-06-04 04:42:00,66.2,53.6,29.86,North,0,6.7,8.5,64,0.00,,,0.00,VWS V14.01,2013-06-04 01:42:00,
2013-06-04 04:47:00,66.2,53.6,29.86,NNW,338,7.3,7.3,64,0.00,,,0.00,VWS V14.01,2013-06-04 01:47:00,
2013-06-04 04:52:00,66.2,53.2,29.86,NW,315,8.9,8.9,63,0.00,,,0.00,VWS V14.01,2013-06-04 01:52:00,
2013-06-04 04:57:00,66.0,53.0,29.86,NW,315,0.8,0.8,63,0.00,,,0.00,VWS V14.01,2013-06-04 01:57:00,
2013-06-04 05:03:00,65.8,52.8,29.86,North,0,0.0,0.0,63,0.00,,,0.00,VWS V14.01,2013-06-04 02:03:00,
2013-06-04 05:08:00,66.2,52.8,29.86,NW,315,0.0,4.2,62,0.00,,,0.00,VWS V14.01,2013-06-04 02:08:00,
2013-06-04 05:13:00,66.4,53.0,29.86,NW,315,0.0,0.4,62,0.00,,,0.00,VWS V14.01,2013-06-04 02:13:00,
2013-06-04 05:18:00,66.2,52.8,29.86,NNW,338,2.0,4.0,62,0.00,,,0.00,VWS V14.01,2013-06-04 02:18:00,
2013-06-04 05:23:00,66.2,52.8,29.86,NNW,338,0.0,0.0,62,0.00,,,0.00,VWS V14.01,2013-06-04 02:23:00,
2013-06-04 05:28:00,66.2,52.8,29.86,NNW,338,4.2,4.4,62,0.00,,,0.00,VWS V14.01,2013-06-04 02:28:00,
2013-06-04 05:33:00,66.4,53.0,29.86,WNW,292,0.0,0.0,62,0.00,,,0.00,VWS V14.01,2013-06-04 02:33:00,
2013-06-04 05:38:00,66.4,52.5,29.86,NNW,338,0.0,3.3,61,0.00,,,0.00,VWS V14.01,2013-06-04 02:38:00,
2013-06-04 05:43:00,66.4,52.5,29.86,NNW,338,0.0,0.0,61,0.00,,,0.00,VWS V14.01,2013-06-04 02:43:00,
2013-06-04 05:48:00,66.4,52.5,29.86,NW,315,0.0,0.0,61,0.00,,,0.00,VWS V14.01,2013-06-04 02:48:00,
2013-06-04 05:53:00,66.2,52.3,29.87,NW,315,3.8,3.8,61,0.00,,,0.00,VWS V14.01,2013-06-04 02:53:00,
2013-06-04 05:58:00,66.4,52.5,29.87,North,0,0.0,0.0,61,0.00,,,0.00,VWS V14.01,2013-06-04 02:58:00,
2013-06-04 06:03:00,66.4,52.5,29.87,WNW,292,0.0,0.0,61,0.00,,,0.00,VWS V14.01,2013-06-04 03:03:00,
2013-06-04 06:08:00,66.4,52.1,29.87,West,270,0.0,0.0,60,0.00,,,0.00,VWS V14.01,2013-06-04 03:08:00,
2013-06-04 06:13:00,66.7,52.3,29.87,WNW,292,0.0,0.0,60,0.00,,,0.00,VWS V14.01,2013-06-04 03:13:00,
2013-06-04 06:19:00,66.7,51.9,29.87,WNW,292,0.0,0.0,59,0.00,,,0.00,VWS V14.01,2013-06-04 03:19:00,
2013-06-04 06:24:00,66.9,52.1,29.87,WNW,292,0.0,0.0,59,0.00,,,0.00,VWS V14.01,2013-06-04 03:24:00,
2013-06-04 06:29:00,66.7,51.9,29.88,West,270,0.0,0.0,59,0.00,,,0.00,VWS V14.01,2013-06-04 03:29:00,
2013-06-04 06:34:00,67.1,52.3,29.88,West,270,0.0,0.0,59,0.00,,,0.00,VWS V14.01,2013-06-04 03:34:00,
2013-06-04 06:39:00,67.3,52.5,29.87,West,270,0.0,0.0,59,0.00,,,0.00,VWS V14.01,2013-06-04 03:39:00,
2013-06-04 06:44:00,67.3,52.5,29.88,West,270,0.0,0.0,59,0.00,,,0.00,VWS V14.01,2013-06-04 03:44:00,
2013-06-04 06:49:00,67.5,52.7,29.88,WNW,292,0.0,0.0,59,0.00,,,0.00,VWS V14.01,2013-06-04 03:49:00,
2013-06-04 06:54:00,67.8,52.9,29.88,NNW,338,0.0,0.0,59,0.00,,,0.00,VWS V14.01,2013-06-04 03:54:00,
2013-06-04 06:59:00,68.0,52.7,29.88,NNW,338,0.0,0.0,58,0.00,,,0.00,VWS V14.01,2013-06-04 03:59:00,
2013-06-04 07:01:00,68.2,52.8,29.88,NNW,338,0.0,0.0,58,0.00,,,0.00,VWS V14.01,2013-06-04 04:01:00,
2013-06-04 07:03:00,68.5,53.6,29.88,NNW,338,0.0,0.0,59,0.00,,,0.00,VWS V14.01,2013-06-04 04:03:00,
2013-06-04 07:05:00,68.5,53.6,29.88,NNW,338,0.0,0.0,59,0.00,,,0.00,VWS V14.01,2013-06-04 04:05:00,
2013-06-04 07:10:00,69.1,53.7,29.88,North,0,0.0,0.0,58,0.00,,,0.00,VWS V14.01,2013-06-04 04:10:00,
2013-06-04 07:16:00,69.6,53.7,29.88,North,0,0.0,0.0,57,0.00,,,0.00,VWS V14.01,2013-06-04 04:16:00,
2013-06-04 07:21:00,69.8,53.4,29.88,North,0,0.0,0.0,56,0.00,,,0.00,VWS V14.01,2013-06-04 04:21:00,
2013-06-04 07:26:00,69.8,53.4,29.88,North,0,0.0,0.0,56,0.00,,,0.00,VWS V14.01,2013-06-04 04:26:00,
2013-06-04 07:31:00,69.8,53.9,29.89,North,0,0.0,0.0,57,0.00,,,0.00,VWS V14.01,2013-06-04 04:31:00,
2013-06-04 07:36:00,70.3,54.3,29.89,North,0,0.0,0.0,57,0.00,,,0.00,VWS V14.01,2013-06-04 04:36:00,
2013-06-04 07:41:00,70.7,54.2,29.89,North,0,0.0,0.0,56,0.00,,,0.00,VWS V14.01,2013-06-04 04:41:00,
2013-06-04 07:46:00,71.1,54.6,29.89,North,0,0.0,0.0,56,0.00,,,0.00,VWS V14.01,2013-06-04 04:46:00,
2013-06-04 07:51:00,70.9,52.4,29.89,West,270,1.7,3.3,52,0.00,,,0.00,VWS V14.01,2013-06-04 04:51:00,
2013-06-04 07:56:00,70.7,52.7,29.89,NNW,338,0.2,0.2,53,0.00,,,0.00,VWS V14.01,2013-06-04 04:56:00,
2013-06-04 08:01:00,70.9,52.4,29.89,NW,315,0.0,1.3,52,0.00,,,0.00,VWS V14.01,2013-06-04 05:01:00,
2013-06-04 08:06:00,71.2,52.7,29.89,NW,315,0.0,0.0,52,0.00,,,0.00,VWS V14.01,2013-06-04 05:06:00,
2013-06-04 08:11:00,71.6,53.0,29.89,WNW,292,0.0,0.0,52,0.00,,,0.00,VWS V14.01,2013-06-04 05:11:00,
2013-06-04 08:17:00,72.1,53.0,29.89,NNW,338,0.0,0.0,51,0.00,,,0.00,VWS V14.01,2013-06-04 05:17:00,
2013-06-04 08:22:00,73.2,54.0,29.89,WNW,292,0.0,0.0,51,0.00,,,0.00,VWS V14.01,2013-06-04 05:22:00,
2013-06-04 08:27:00,73.9,54.1,29.89,WNW,292,0.0,0.0,50,0.00,,,0.00,VWS V14.01,2013-06-04 05:27:00,
2013-06-04 08:32:00,74.5,53.5,29.89,WNW,292,0.0,0.0,48,0.00,,,0.00,VWS V14.01,2013-06-04 05:32:00,
2013-06-04 08:37:00,73.9,51.8,29.89,North,0,3.8,3.8,46,0.00,,,0.00,VWS V14.01,2013-06-04 05:37:00,
2013-06-04 08:42:00,73.4,51.3,29.89,North,0,10.9,10.9,46,0.00,,,0.00,VWS V14.01,2013-06-04 05:42:00,
2013-06-04 08:47:00,73.0,51.6,29.89,NW,315,8.0,8.0,47,0.00,,,0.00,VWS V14.01,2013-06-04 05:47:00,
2013-06-04 08:52:00,73.2,52.3,29.89,NNW,338,3.8,7.6,48,0.00,,,0.00,VWS V14.01,2013-06-04 05:52:00,
2013-06-04 08:57:00,73.4,51.9,29.89,NW,315,2.6,6.4,47,0.00,,,0.00,VWS V14.01,2013-06-04 05:57:00,
2013-06-04 09:02:00,73.9,52.4,29.89,NW,315,6.2,6.2,47,0.00,,,0.00,VWS V14.01,2013-06-04 06:02:00,
2013-06-04 09:07:00,73.6,52.7,29.89,NW,315,3.8,6.2,48,0.00,,,0.00,VWS V14.01,2013-06-04 06:07:00,
2013-06-04 09:12:00,73.9,53.0,29.89,NW,315,1.5,1.5,48,0.00,,,0.00,VWS V14.01,2013-06-04 06:12:00,
2013-06-04 09:18:00,74.3,52.8,29.89,West,270,0.0,0.0,47,0.00,,,0.00,VWS V14.01,2013-06-04 06:18:00,
2013-06-04 09:23:00,74.3,53.3,29.89,NNW,338,6.0,6.0,48,0.00,,,0.00,VWS V14.01,2013-06-04 06:23:00,
2013-06-04 09:28:00,74.5,52.9,29.89,NNW,338,5.1,5.1,47,0.00,,,0.00,VWS V14.01,2013-06-04 06:28:00,
2013-06-04 09:33:00,74.5,52.9,29.89,NNW,338,4.0,4.4,47,0.00,,,0.00,VWS V14.01,2013-06-04 06:33:00,
2013-06-04 09:38:00,74.8,53.2,29.89,North,0,4.2,4.6,47,0.00,,,0.00,VWS V14.01,2013-06-04 06:38:00,
2013-06-04 09:43:00,75.2,53.0,29.89,North,0,1.5,1.5,46,0.00,,,0.00,VWS V14.01,2013-06-04 06:43:00,
2013-06-04 09:48:00,75.7,53.4,29.89,NNW,338,5.1,7.1,46,0.00,,,0.00,VWS V14.01,2013-06-04 06:48:00,
2013-06-04 09:53:00,75.6,52.8,29.89,NNW,338,7.6,7.6,45,0.00,,,0.00,VWS V14.01,2013-06-04 06:53:00,
2013-06-04 09:58:00,75.7,52.8,29.89,NW,315,1.5,1.5,45,0.00,,,0.00,VWS V14.01,2013-06-04 06:58:00,
2013-06-04 10:04:00,76.1,53.2,29.89,NNW,338,8.7,9.1,45,0.00,,,0.00,VWS V14.01,2013-06-04 07:04:00,
2013-06-04 10:09:00,76.3,53.4,29.89,NNW,338,2.6,2.6,45,0.00,,,0.00,VWS V14.01,2013-06-04 07:09:00,
2013-06-04 10:14:00,76.3,52.2,29.89,NW,315,1.3,1.3,43,0.00,,,0.00,VWS V14.01,2013-06-04 07:14:00,
2013-06-04 10:19:00,77.5,52.6,29.89,NW,315,6.9,6.9,42,0.00,,,0.00,VWS V14.01,2013-06-04 07:19:00,
2013-06-04 10:24:00,77.5,53.2,29.89,NNE,22,7.8,7.8,43,0.00,,,0.00,VWS V14.01,2013-06-04 07:24:00,
2013-06-04 10:29:00,77.5,52.6,29.89,North,0,7.1,9.1,42,0.00,,,0.00,VWS V14.01,2013-06-04 07:29:00,
2013-06-04 10:34:00,77.5,52.6,29.89,NNW,338,0.4,2.6,42,0.00,,,0.00,VWS V14.01,2013-06-04 07:34:00,
2013-06-04 10:39:00,78.1,53.1,29.89,NNW,338,0.0,0.0,42,0.00,,,0.00,VWS V14.01,2013-06-04 07:39:00,
2013-06-04 10:44:00,78.3,52.7,29.89,NNE,22,0.6,0.6,41,0.00,,,0.00,VWS V14.01,2013-06-04 07:44:00,
2013-06-04 10:49:00,78.3,53.3,29.89,NNW,338,0.0,0.0,42,0.00,,,0.00,VWS V14.01,2013-06-04 07:49:00,
2013-06-04 10:54:00,79.2,52.8,29.89,North,0,0.0,0.0,40,0.00,,,0.00,VWS V14.01,2013-06-04 07:54:00,
2013-06-04 11:00:00,79.0,52.6,29.89,NNW,338,13.1,13.1,40,0.00,,,0.00,VWS V14.01,2013-06-04 08:00:00,
2013-06-04 11:05:00,79.0,52.6,29.89,WNW,292,5.5,5.5,40,0.00,,,0.00,VWS V14.01,2013-06-04 08:05:00,
2013-06-04 11:10:00,79.5,53.0,29.89,West,270,1.7,1.7,40,0.00,,,0.00,VWS V14.01,2013-06-04 08:10:00,
2013-06-04 11:15:00,79.9,54.1,29.89,NNW,338,1.7,1.7,41,0.00,,,0.00,VWS V14.01,2013-06-04 08:15:00,
2013-06-04 11:20:00,80.6,53.3,29.89,West,270,0.0,0.0,39,0.00,,,0.00,VWS V14.01,2013-06-04 08:20:00,
2013-06-04 11:25:00,79.7,53.2,29.89,SW,225,3.1,3.1,40,0.00,,,0.00,VWS V14.01,2013-06-04 08:25:00,
2013-06-04 11:30:00,79.5,53.0,29.89,SW,225,0.0,0.0,40,0.00,,,0.00,VWS V14.01,2013-06-04 08:30:00,
2013-06-04 11:35:00,79.3,52.9,29.89,West,270,0.0,0.0,40,0.00,,,0.00,VWS V14.01,2013-06-04 08:35:00,
2013-06-04 11:40:00,79.7,53.2,29.89,WNW,292,0.0,0.0,40,0.00,,,0.00,VWS V14.01,2013-06-04 08:40:00,
2013-06-04 11:45:00,79.0,51.9,29.89,West,270,2.9,2.9,39,0.00,,,0.00,VWS V14.01,2013-06-04 08:45:00,
2013-06-04 11:50:00,78.6,52.2,29.89,South,180,0.0,1.5,40,0.00,,,0.00,VWS V14.01,2013-06-04 08:50:00,
2013-06-04 11:55:00,79.2,53.5,29.89,NNW,338,4.9,4.9,41,0.00,,,0.00,VWS V14.01,2013-06-04 08:55:00,
2013-06-04 12:00:00,79.9,53.4,29.89,SW,225,0.0,0.0,40,0.00,,,0.00,VWS V14.01,2013-06-04 09:00:00,
2013-06-04 12:05:00,79.3,53.5,29.89,SSE,158,8.2,8.2,41,0.00,,,0.00,VWS V14.01,2013-06-04 09:05:00,
2013-06-04 12:10:00,78.1,54.4,29.89,SSE,158,0.4,0.4,44,0.00,,,0.00,VWS V14.01,2013-06-04 09:10:00,
2013-06-04 12:15:00,78.3,54.6,29.89,ESE,112,0.0,0.0,44,0.00,,,0.00,VWS V14.01,2013-06-04 09:15:00,
2013-06-04 12:21:00,79.7,55.2,29.89,East,90,1.3,1.3,43,0.00,,,0.00,VWS V14.01,2013-06-04 09:21:00,
2013-06-04 12:26:00,80.1,54.9,29.89,ESE,112,0.4,0.4,42,0.00,,,0.00,VWS V14.01,2013-06-04 09:26:00,
2013-06-04 12:31:00,80.6,54.7,29.89,ESE,112,0.0,0.0,41,0.00,,,0.00,VWS V14.01,2013-06-04 09:31:00,
2013-06-04 12:36:00,79.7,54.6,29.89,ESE,112,0.0,0.8,42,0.00,,,0.00,VWS V14.01,2013-06-04 09:36:00,
2013-06-04 12:41:00,80.2,54.3,29.89,ESE,112,0.0,0.0,41,0.00,,,0.00,VWS V14.01,2013-06-04 09:41:00,
2013-06-04 12:46:00,80.6,54.7,29.89,ESE,112,0.0,0.0,41,0.00,,,0.00,VWS V14.01,2013-06-04 09:46:00,
2013-06-04 12:51:00,79.9,49.8,29.89,South,180,4.2,4.2,35,0.00,,,0.00,VWS V14.01,2013-06-04 09:51:00,
2013-06-04 12:56:00,79.5,49.4,29.89,SSW,202,0.2,0.2,35,0.00,,,0.00,VWS V14.01,2013-06-04 09:56:00,
2013-06-04 13:01:00,80.6,49.6,29.88,SSW,202,2.0,2.0,34,0.00,,,0.00,VWS V14.01,2013-06-04 10:01:00,
2013-06-04 13:06:00,80.2,50.1,29.89,West,270,2.9,6.2,35,0.00,,,0.00,VWS V14.01,2013-06-04 10:06:00,
2013-06-04 13:11:00,81.5,48.8,29.88,West,270,0.0,0.0,32,0.00,,,0.00,VWS V14.01,2013-06-04 10:11:00,
2013-06-04 13:16:00,81.7,47.2,29.88,SSW,202,2.9,5.5,30,0.00,,,0.00,VWS V14.01,2013-06-04 10:16:00,
2013-06-04 13:21:00,82.0,46.6,29.89,SSW,202,6.2,9.3,29,0.00,,,0.00,VWS V14.01,2013-06-04 10:21:00,
2013-06-04 13:27:00,81.7,45.4,29.89,West,270,8.5,8.5,28,0.00,,,0.00,VWS V14.01,2013-06-04 10:27:00,
2013-06-04 13:32:00,81.7,46.3,29.88,West,270,2.2,2.2,29,0.00,,,0.00,VWS V14.01,2013-06-04 10:32:00,
2013-06-04 13:37:00,82.6,46.2,29.89,West,270,2.0,2.0,28,0.00,,,0.00,VWS V14.01,2013-06-04 10:37:00,
2013-06-04 13:42:00,82.6,45.2,29.89,WNW,292,3.3,4.6,27,0.00,,,0.00,VWS V14.01,2013-06-04 10:42:00,
2013-06-04 13:47:00,82.4,46.0,29.89,West,270,0.0,4.4,28,0.00,,,0.00,VWS V14.01,2013-06-04 10:47:00,
2013-06-04 13:52:00,82.8,45.4,29.88,West,270,5.3,5.3,27,0.00,,,0.00,VWS V14.01,2013-06-04 10:52:00,
2013-06-04 13:57:00,82.4,45.1,29.88,NW,315,0.0,0.0,27,0.00,,,0.00,VWS V14.01,2013-06-04 10:57:00,
2013-06-04 14:02:00,82.9,44.5,29.88,West,270,0.0,2.4,26,0.00,,,0.00,VWS V14.01,2013-06-04 11:02:00,
2013-06-04 14:07:00,83.7,44.2,29.88,SSW,202,4.2,4.4,25,0.00,,,0.00,VWS V14.01,2013-06-04 11:07:00,
2013-06-04 14:12:00,83.7,42.0,29.88,West,270,4.4,4.4,23,0.00,,,0.00,VWS V14.01,2013-06-04 11:12:00,
2013-06-04 14:17:00,83.1,43.6,29.88,South,180,3.8,5.8,25,0.00,,,0.00,VWS V14.01,2013-06-04 11:17:00,
2013-06-04 14:22:00,82.6,44.2,29.88,SSW,202,2.4,6.9,26,0.00,,,0.00,VWS V14.01,2013-06-04 11:22:00,
2013-06-04 14:27:00,82.9,44.5,29.87,West,270,1.1,1.1,26,0.00,,,0.00,VWS V14.01,2013-06-04 11:27:00,
2013-06-04 14:32:00,83.1,43.6,29.87,WNW,292,1.5,1.5,25,0.00,,,0.00,VWS V14.01,2013-06-04 11:32:00,
2013-06-04 14:37:00,82.9,43.5,29.87,WNW,292,0.0,0.0,25,0.00,,,0.00,VWS V14.01,2013-06-04 11:37:00,
2013-06-04 14:43:00,83.3,44.8,29.86,WNW,292,0.0,0.0,26,0.00,,,0.00,VWS V14.01,2013-06-04 11:43:00,
2013-06-04 14:48:00,83.5,47.9,29.86,SSW,202,2.6,2.6,29,0.00,,,0.00,VWS V14.01,2013-06-04 11:48:00,
2013-06-04 14:53:00,82.6,46.2,29.86,WNW,292,0.0,0.0,28,0.00,,,0.00,VWS V14.01,2013-06-04 11:53:00,
2013-06-04 14:58:00,82.9,47.4,29.86,WSW,248,0.0,0.0,29,0.00,,,0.00,VWS V14.01,2013-06-04 11:58:00,
2013-06-04 15:03:00,83.7,48.1,29.86,NW,315,2.6,2.6,29,0.00,,,0.00,VWS V14.01,2013-06-04 12:03:00,
2013-06-04 15:08:00,83.7,50.7,29.86,SSW,202,5.1,5.1,32,0.00,,,0.00,VWS V14.01,2013-06-04 12:08:00,
2013-06-04 15:13:00,81.1,50.8,29.85,South,180,10.0,10.0,35,0.00,,,0.00,VWS V14.01,2013-06-04 12:13:00,
2013-06-04 15:18:00,80.8,48.2,29.86,SSW,202,6.9,6.9,32,0.00,,,0.00,VWS V14.01,2013-06-04 12:18:00,
2013-06-04 15:23:00,80.8,48.2,29.86,SSW,202,7.3,7.3,32,0.00,,,0.00,VWS V14.01,2013-06-04 12:23:00,
2013-06-04 15:28:00,80.8,50.6,29.86,SW,225,13.6,13.6,35,0.00,,,0.00,VWS V14.01,2013-06-04 12:28:00,
2013-06-04 15:33:00,80.4,49.5,29.86,South,180,0.0,7.6,34,0.00,,,0.00,VWS V14.01,2013-06-04 12:33:00,
2013-06-04 15:38:00,80.2,51.6,29.86,SSW,202,10.2,11.1,37,0.00,,,0.00,VWS V14.01,2013-06-04 12:38:00,
2013-06-04 15:43:00,79.5,51.7,29.86,South,180,6.7,8.7,38,0.00,,,0.00,VWS V14.01,2013-06-04 12:43:00,
2013-06-04 15:48:00,80.6,47.2,29.86,SW,225,6.0,6.0,31,0.00,,,0.00,VWS V14.01,2013-06-04 12:48:00,
2013-06-04 15:53:00,80.8,50.6,29.86,ESE,112,0.8,0.8,35,0.00,,,0.00,VWS V14.01,2013-06-04 12:53:00,
2013-06-04 15:59:00,80.2,50.8,29.86,SE,135,2.0,2.0,36,0.00,,,0.00,VWS V14.01,2013-06-04 12:59:00,
2013-06-04 16:04:00,80.2,50.8,29.86,South,180,5.3,5.3,36,0.00,,,0.00,VWS V14.01,2013-06-04 13:04:00,
2013-06-04 16:09:00,79.9,52.0,29.86,South,180,5.3,9.3,38,0.00,,,0.00,VWS V14.01,2013-06-04 13:09:00,
2013-06-04 16:14:00,79.7,51.8,29.86,South,180,14.0,14.0,38,0.00,,,0.00,VWS V14.01,2013-06-04 13:14:00,
2013-06-04 16:19:00,79.2,51.4,29.86,South,180,8.0,8.0,38,0.00,,,0.00,VWS V14.01,2013-06-04 13:19:00,
2013-06-04 16:24:00,79.3,50.8,29.86,NNW,338,0.2,0.2,37,0.00,,,0.00,VWS V14.01,2013-06-04 13:24:00,
2013-06-04 16:29:00,79.7,51.1,29.86,South,180,10.5,11.6,37,0.00,,,0.00,VWS V14.01,2013-06-04 13:29:00,
2013-06-04 16:34:00,79.3,50.8,29.86,SW,225,11.4,11.4,37,0.00,,,0.00,VWS V14.01,2013-06-04 13:34:00,
2013-06-04 16:39:00,79.0,51.2,29.86,SSE,158,5.8,8.0,38,0.00,,,0.00,VWS V14.01,2013-06-04 13:39:00,
2013-06-04 16:44:00,79.0,49.8,29.86,SSW,202,0.8,0.8,36,0.00,,,0.00,VWS V14.01,2013-06-04 13:44:00,
2013-06-04 16:49:00,79.5,50.9,29.86,SW,225,6.9,7.3,37,0.00,,,0.00,VWS V14.01,2013-06-04 13:49:00,
2013-06-04 16:55:00,79.7,49.6,29.86,SSW,202,3.1,4.9,35,0.00,,,0.00,VWS V14.01,2013-06-04 13:55:00,
2013-06-04 17:00:00,79.9,47.4,29.85,SSW,202,8.0,8.0,32,0.00,,,0.00,VWS V14.01,2013-06-04 14:00:00,
2013-06-04 17:05:00,80.1,46.7,29.85,SSE,158,2.9,2.9,31,0.00,,,0.00,VWS V14.01,2013-06-04 14:05:00,
2013-06-04 17:10:00,80.1,45.9,29.85,SW,225,7.6,17.8,30,0.00,,,0.00,VWS V14.01,2013-06-04 14:10:00,
2013-06-04 17:15:00,80.2,47.7,29.85,SSW,202,0.0,0.0,32,0.00,,,0.00,VWS V14.01,2013-06-04 14:15:00,
2013-06-04 17:20:00,81.1,46.7,29.85,WNW,292,5.1,5.1,30,0.00,,,0.00,VWS V14.01,2013-06-04 14:20:00,
2013-06-04 17:25:00,81.5,47.1,29.85,WSW,248,3.1,3.1,30,0.00,,,0.00,VWS V14.01,2013-06-04 14:25:00,
2013-06-04 17:30:00,81.5,47.1,29.85,SW,225,0.0,0.0,30,0.00,,,0.00,VWS V14.01,2013-06-04 14:30:00,
2013-06-04 17:35:00,81.1,46.7,29.85,WSW,248,2.6,2.6,30,0.00,,,0.00,VWS V14.01,2013-06-04 14:35:00,
2013-06-04 17:40:00,80.8,46.5,29.85,SSW,202,0.0,0.0,30,0.00,,,0.00,VWS V14.01,2013-06-04 14:40:00,
2013-06-04 17:45:00,80.6,47.2,29.85,SSW,202,0.0,1.1,31,0.00,,,0.00,VWS V14.01,2013-06-04 14:45:00,
2013-06-04 17:50:00,80.2,47.7,29.85,SSW,202,5.3,6.4,32,0.00,,,0.00,VWS V14.01,2013-06-04 14:50:00,
2013-06-04 17:56:00,79.9,49.0,29.85,SSW,202,3.3,3.3,34,0.00,,,0.00,VWS V14.01,2013-06-04 14:56:00,
2013-06-04 18:01:00,79.7,47.2,29.85,SW,225,7.6,7.6,32,0.00,,,0.00,VWS V14.01,2013-06-04 15:01:00,
2013-06-04 18:06:00,79.5,47.9,29.85,South,180,2.2,8.0,33,0.00,,,0.00,VWS V14.01,2013-06-04 15:06:00,
2013-06-04 18:11:00,79.5,49.4,29.85,South,180,1.5,1.5,35,0.00,,,0.00,VWS V14.01,2013-06-04 15:11:00,
2013-06-04 18:16:00,79.3,50.0,29.85,South,180,4.9,6.4,36,0.00,,,0.00,VWS V14.01,2013-06-04 15:16:00,
2013-06-04 18:21:00,79.0,50.5,29.85,SSE,158,0.0,0.0,37,0.00,,,0.00,VWS V14.01,2013-06-04 15:21:00,
2013-06-04 18:26:00,78.8,47.3,29.85,SSW,202,0.0,0.0,33,0.00,,,0.00,VWS V14.01,2013-06-04 15:26:00,
2013-06-04 18:31:00,79.2,46.8,29.85,WSW,248,0.0,0.0,32,0.00,,,0.00,VWS V14.01,2013-06-04 15:31:00,
2013-06-04 18:36:00,79.5,47.9,29.85,SSW,202,2.4,2.4,33,0.00,,,0.00,VWS V14.01,2013-06-04 15:36:00,
2013-06-04 18:41:00,79.7,47.2,29.85,SW,225,3.1,3.1,32,0.00,,,0.00,VWS V14.01,2013-06-04 15:41:00,
2013-06-04 18:46:00,79.3,46.0,29.85,SW,225,3.3,3.3,31,0.00,,,0.00,VWS V14.01,2013-06-04 15:46:00,
2013-06-04 18:52:00,79.0,46.6,29.85,WSW,248,5.1,5.1,32,0.00,,,0.00,VWS V14.01,2013-06-04 15:52:00,
2013-06-04 18:57:00,79.0,46.6,29.85,WSW,248,3.5,3.5,32,0.00,,,0.00,VWS V14.01,2013-06-04 15:57:00,
2013-06-04 19:02:00,79.0,47.4,29.85,West,270,0.0,0.0,33,0.00,,,0.00,VWS V14.01,2013-06-04 16:02:00,
2013-06-04 19:07:00,78.8,46.5,29.85,South,180,3.8,3.8,32,0.00,,,0.00,VWS V14.01,2013-06-04 16:07:00,
2013-06-04 19:12:00,78.4,46.9,29.85,SW,225,0.0,0.0,33,0.00,,,0.00,VWS V14.01,2013-06-04 16:12:00,
2013-06-04 19:17:00,78.3,48.4,29.85,West,270,0.0,1.3,35,0.00,,,0.00,VWS V14.01,2013-06-04 16:17:00,
2013-06-04 19:22:00,78.1,48.2,29.86,West,270,2.0,2.0,35,0.00,,,0.00,VWS V14.01,2013-06-04 16:22:00,
2013-06-04 19:27:00,78.1,47.4,29.86,WSW,248,4.2,4.2,34,0.00,,,0.00,VWS V14.01,2013-06-04 16:27:00,
2013-06-04 19:32:00,77.7,47.1,29.86,WSW,248,4.0,4.0,34,0.00,,,0.00,VWS V14.01,2013-06-04 16:32:00,
2013-06-04 19:37:00,77.2,47.4,29.86,West,270,0.0,0.0,35,0.00,,,0.00,VWS V14.01,2013-06-04 16:37:00,
2013-06-04 19:42:00,77.0,47.2,29.86,WSW,248,6.2,6.2,35,0.00,,,0.00,VWS V14.01,2013-06-04 16:42:00,
2013-06-04 19:47:00,76.8,47.8,29.86,WSW,248,0.0,0.0,36,0.00,,,0.00,VWS V14.01,2013-06-04 16:47:00,
2013-06-04 19:52:00,76.6,47.6,29.87,West,270,5.8,5.8,36,0.00,,,0.00,VWS V14.01,2013-06-04 16:52:00,
2013-06-04 19:57:00,76.5,47.5,29.87,WSW,248,0.0,0.0,36,0.00,,,0.00,VWS V14.01,2013-06-04 16:57:00,
2013-06-04 20:03:00,76.3,48.1,29.87,South,180,3.5,3.5,37,0.00,,,0.00,VWS V14.01,2013-06-04 17:03:00,
2013-06-04 20:08:00,75.7,47.6,29.87,WNW,292,3.5,3.5,37,0.00,,,0.00,VWS V14.01,2013-06-04 17:08:00,
2013-06-04 20:13:00,75.7,48.3,29.87,West,270,2.6,2.6,38,0.00,,,0.00,VWS V14.01,2013-06-04 17:13:00,
2013-06-04 20:18:00,75.4,48.0,29.87,WSW,248,0.0,0.0,38,0.00,,,0.00,VWS V14.01,2013-06-04 17:18:00,
2013-06-04 20:23:00,75.0,48.3,29.87,West,270,0.0,4.0,39,0.00,,,0.00,VWS V14.01,2013-06-04 17:23:00,
2013-06-04 20:28:00,74.8,48.2,29.87,WSW,248,0.6,0.6,39,0.00,,,0.00,VWS V14.01,2013-06-04 17:28:00,
2013-06-04 20:33:00,74.7,48.1,29.87,West,270,0.0,0.0,39,0.00,,,0.00,VWS V14.01,2013-06-04 17:33:00,
2013-06-04 20:38:00,74.5,48.6,29.87,WSW,248,2.2,2.2,40,0.00,,,0.00,VWS V14.01,2013-06-04 17:38:00,
2013-06-04 20:43:00,74.3,47.7,29.87,West,270,6.9,10.5,39,0.00,,,0.00,VWS V14.01,2013-06-04 17:43:00,
2013-06-04 20:48:00,74.3,47.7,29.88,West,270,3.8,7.1,39,0.00,,,0.00,VWS V14.01,2013-06-04 17:48:00,
2013-06-04 20:53:00,74.1,48.2,29.88,WSW,248,2.0,2.0,40,0.00,,,0.00,VWS V14.01,2013-06-04 17:53:00,
2013-06-04 20:58:00,74.1,48.2,29.88,SW,225,4.6,4.6,40,0.00,,,0.00,VWS V14.01,2013-06-04 17:58:00,
2013-06-04 21:04:00,73.9,48.0,29.88,West,270,0.0,0.0,40,0.00,,,0.00,VWS V14.01,2013-06-04 18:04:00,
2013-06-04 21:09:00,73.8,48.0,29.88,West,270,1.1,1.1,40,0.00,,,0.00,VWS V14.01,2013-06-04 18:09:00,
2013-06-04 21:14:00,73.6,48.4,29.88,West,270,0.0,0.0,41,0.00,,,0.00,VWS V14.01,2013-06-04 18:14:00,
2013-06-04 21:19:00,73.6,49.1,29.89,West,270,1.3,1.3,42,0.00,,,0.00,VWS V14.01,2013-06-04 18:19:00,
2013-06-04 21:24:00,73.4,48.9,29.89,WSW,248,1.5,4.0,42,0.00,,,0.00,VWS V14.01,2013-06-04 18:24:00,
2013-06-04 21:29:00,73.4,50.2,29.89,WSW,248,2.0,4.4,44,0.00,,,0.00,VWS V14.01,2013-06-04 18:29:00,
2013-06-04 21:34:00,73.0,50.4,29.90,WSW,248,4.6,8.2,45,0.00,,,0.00,VWS V14.01,2013-06-04 18:34:00,
2013-06-04 21:39:00,73.0,50.4,29.90,West,270,2.2,2.2,45,0.00,,,0.00,VWS V14.01,2013-06-04 18:39:00,
2013-06-04 21:44:00,72.9,49.7,29.90,WSW,248,0.0,0.0,44,0.00,,,0.00,VWS V14.01,2013-06-04 18:44:00,
2013-06-04 21:49:00,72.7,49.5,29.90,West,270,2.2,4.0,44,0.00,,,0.00,VWS V14.01,2013-06-04 18:49:00,
2013-06-04 21:54:00,72.7,50.1,29.90,West,270,0.0,0.0,45,0.00,,,0.00,VWS V14.01,2013-06-04 18:54:00,
2013-06-04 21:59:00,72.5,49.9,29.91,WNW,292,3.5,3.5,45,0.00,,,0.00,VWS V14.01,2013-06-04 18:59:00,
2013-06-04 22:04:00,72.5,49.9,29.91,West,270,0.2,0.2,45,0.00,,,0.00,VWS V14.01,2013-06-04 19:04:00,
2013-06-04 22:09:00,72.3,49.8,29.91,WNW,292,4.4,4.4,45,0.00,,,0.00,VWS V14.01,2013-06-04 19:09:00,
2013-06-04 22:14:00,72.0,49.5,29.91,NW,315,4.0,4.0,45,0.00,,,0.00,VWS V14.01,2013-06-04 19:14:00,
2013-06-04 22:20:00,71.8,48.7,29.91,WNW,292,2.6,3.5,44,0.00,,,0.00,VWS V14.01,2013-06-04 19:20:00,
2013-06-04 22:25:00,71.6,49.1,29.91,West,270,1.3,1.3,45,0.00,,,0.00,VWS V14.01,2013-06-04 19:25:00,
2013-06-04 22:30:00,71.6,49.1,29.91,NW,315,3.3,3.3,45,0.00,,,0.00,VWS V14.01,2013-06-04 19:30:00,
2013-06-04 22:35:00,71.2,48.8,29.91,WNW,292,6.9,6.9,45,0.00,,,0.00,VWS V14.01,2013-06-04 19:35:00,
2013-06-04 22:40:00,71.2,48.8,29.92,NW,315,6.7,6.7,45,0.00,,,0.00,VWS V14.01,2013-06-04 19:40:00,
2013-06-04 22:45:00,71.1,48.7,29.92,WNW,292,4.4,6.9,45,0.00,,,0.00,VWS V14.01,2013-06-04 19:45:00,
2013-06-04 22:50:00,70.9,49.1,29.92,West,270,0.0,0.0,46,0.00,,,0.00,VWS V14.01,2013-06-04 19:50:00,
2013-06-04 22:55:00,70.7,49.5,29.92,West,270,2.9,2.9,47,0.00,,,0.00,VWS V14.01,2013-06-04 19:55:00,
2013-06-04 23:00:00,70.7,47.7,29.92,West,270,6.9,6.9,44,0.00,,,0.00,VWS V14.01,2013-06-04 20:00:00,
2013-06-04 23:05:00,70.9,48.5,29.92,NNW,338,5.8,5.8,45,0.00,,,0.00,VWS V14.01,2013-06-04 20:05:00,
2013-06-04 23:10:00,70.7,47.1,29.92,WNW,292,4.9,6.9,43,0.00,,,0.00,VWS V14.01,2013-06-04 20:10:00,
2013-06-04 23:15:00,70.7,46.5,29.92,West,270,6.2,6.2,42,0.00,,,0.00,VWS V14.01,2013-06-04 20:15:00,
2013-06-04 23:20:00,70.7,46.5,29.92,WNW,292,6.7,8.2,42,0.00,,,0.00,VWS V14.01,2013-06-04 20:20:00,
2013-06-04 23:26:00,70.7,46.5,29.92,WNW,292,10.2,10.2,42,0.00,,,0.00,VWS V14.01,2013-06-04 20:26:00,
2013-06-04 23:31:00,70.5,46.9,29.92,NNW,338,1.7,6.9,43,0.00,,,0.00,VWS V14.01,2013-06-04 20:31:00,
2013-06-04 23:36:00,70.3,46.7,29.93,WNW,292,0.0,0.0,43,0.00,,,0.00,VWS V14.01,2013-06-04 20:36:00,
2013-06-04 23:41:00,70.3,46.7,29.93,WNW,292,6.0,6.0,43,0.00,,,0.00,VWS V14.01,2013-06-04 20:41:00,
2013-06-04 23:46:00,70.3,46.7,29.92,WNW,292,0.0,0.0,43,0.00,,,0.00,VWS V14.01,2013-06-04 20:46:00,
2013-06-04 23:51:00,70.0,46.5,29.92,WNW,292,2.4,2.4,43,0.00,,,0.00,VWS V14.01,2013-06-04 20:51:00,
2013-06-04 23:56:00,70.0,47.1,29.92,NW,315,1.7,1.7,44,0.00,,,0.00,VWS V14.01,2013-06-04 20:56:00,